createdAt,value
2023-03-19T00:02:17.599Z,55.70
2023-03-19T00:04:46.217Z,121.70
2023-03-19T00:07:15.775Z,33.73
2023-03-19T00:09:48.227Z,38.17
2023-03-19T00:12:16.651Z,47.07
2023-03-19T00:14:44.597Z,57.73
2023-03-19T00:17:12.622Z,40.27
2023-03-19T00:19:40.934Z,22.23
2023-03-19T00:22:09.711Z,13.67
2023-03-19T00:24:37.677Z,21.70
2023-03-19T00:27:07.137Z,19.33
2023-03-19T00:29:35.307Z,47.37
2023-03-19T00:32:03.354Z,110.63
2023-03-19T00:34:31.613Z,77.67
2023-03-19T00:36:59.532Z,31.90
2023-03-19T00:39:27.463Z,22.10
2023-03-19T00:41:55.402Z,17.90
2023-03-19T00:44:24.682Z,16.50
2023-03-19T00:46:52.747Z,14.80
2023-03-19T00:49:20.846Z,14.03
2023-03-19T00:51:48.915Z,14.20
2023-03-19T00:54:17.015Z,12.73
2023-03-19T00:56:45.066Z,14.03
2023-03-19T00:59:16.758Z,13.90
2023-03-19T01:01:46.513Z,14.90
2023-03-19T01:04:14.930Z,12.90
2023-03-19T01:06:43.287Z,14.10
2023-03-19T01:09:11.741Z,12.83
2023-03-19T01:11:39.677Z,10.73
2023-03-19T01:14:07.894Z,11.50
2023-03-19T01:16:35.919Z,13.00
2023-03-19T01:19:06.106Z,16.13
2023-03-19T01:21:35.637Z,8.37
2023-03-19T01:24:04.626Z,11.70
2023-03-19T01:26:32.768Z,56.47
2023-03-19T01:29:13.136Z,55.10
2023-03-19T01:31:41.318Z,108.97
2023-03-19T01:34:24.771Z,70.73
2023-03-19T01:36:58.306Z,40.53
2023-03-19T01:39:33.787Z,25.57
2023-03-19T01:42:05.540Z,41.33
2023-03-19T01:44:56.504Z,40.57
2023-03-19T01:47:31.677Z,131.50
2023-03-19T01:50:24.461Z,27.33
2023-03-19T01:53:01.821Z,18.60
2023-03-19T01:55:43.782Z,22.80
2023-03-19T01:58:18.667Z,45.73
2023-03-19T02:01:09.682Z,73.07
2023-03-19T02:03:43.338Z,59.03
2023-03-19T02:06:22.020Z,40.30
2023-03-19T02:08:51.388Z,34.47
2023-03-19T02:11:19.955Z,41.90
2023-03-19T02:13:48.996Z,45.27
2023-03-19T02:16:17.082Z,30.43
2023-03-19T02:18:45.777Z,48.90
2023-03-19T02:21:17.545Z,49.93
2023-03-19T02:23:54.822Z,14.27
2023-03-19T02:26:39.388Z,15.30
2023-03-19T02:29:08.814Z,33.67
2023-03-19T02:31:37.762Z,19.93
2023-03-19T02:34:29.880Z,19.83
2023-03-19T02:37:02.482Z,13.70
2023-03-19T02:39:35.826Z,15.57
2023-03-19T02:42:07.133Z,15.07
2023-03-19T02:44:35.095Z,15.90
2023-03-19T02:47:05.485Z,28.50
2023-03-19T02:49:33.556Z,24.83
2023-03-19T02:52:02.650Z,16.60
2023-03-19T02:54:31.632Z,12.23
2023-03-19T02:57:01.060Z,11.53
2023-03-19T02:59:30.515Z,17.80
2023-03-19T03:01:58.564Z,17.70
2023-03-19T03:04:26.736Z,24.63
2023-03-19T03:06:54.623Z,25.43
2023-03-19T03:09:22.841Z,28.57
2023-03-19T03:11:52.288Z,21.27
2023-03-19T03:14:20.269Z,20.03
2023-03-19T03:16:53.693Z,21.33
2023-03-19T03:19:23.385Z,41.77
2023-03-19T03:21:52.522Z,26.03
2023-03-19T03:24:20.451Z,13.70
2023-03-19T03:26:49.359Z,15.30
2023-03-19T03:29:18.186Z,12.67
2023-03-19T03:31:46.445Z,12.50
2023-03-19T03:34:15.754Z,11.57
2023-03-19T03:36:46.256Z,12.17
2023-03-19T03:39:14.854Z,14.67
2023-03-19T03:41:43.186Z,15.63
2023-03-19T03:44:11.318Z,12.30
2023-03-19T03:46:43.316Z,13.20
2023-03-19T03:49:11.457Z,13.20
2023-03-19T03:51:41.214Z,18.53
2023-03-19T03:54:09.206Z,27.03
2023-03-19T03:56:37.490Z,20.80
2023-03-19T03:59:05.511Z,15.53
2023-03-19T04:01:33.945Z,13.33
2023-03-19T04:04:02.067Z,16.97
2023-03-19T04:06:30.654Z,17.17
2023-03-19T04:09:20.247Z,34.50
2023-03-19T04:11:51.362Z,16.03
2023-03-19T04:14:19.562Z,14.43
2023-03-19T04:16:47.680Z,14.00
2023-03-19T04:19:15.655Z,12.40
2023-03-19T04:21:44.905Z,13.10
2023-03-19T04:24:14.509Z,12.13
2023-03-19T04:26:43.873Z,15.40
2023-03-19T04:29:12.128Z,13.37
2023-03-19T04:31:40.619Z,19.63
2023-03-19T04:34:08.570Z,13.07
2023-03-19T04:36:36.690Z,20.40
2023-03-19T04:39:04.970Z,13.40
2023-03-19T04:41:33.162Z,14.73
2023-03-19T04:44:22.849Z,18.37
2023-03-19T04:46:51.152Z,12.53
2023-03-19T04:49:21.441Z,11.83
2023-03-19T04:51:53.697Z,17.70
2023-03-19T04:54:21.734Z,15.30
2023-03-19T04:56:49.652Z,14.73
2023-03-19T04:59:18.237Z,15.53
2023-03-19T05:01:47.546Z,16.77
2023-03-19T05:04:20.313Z,13.20
2023-03-19T05:06:50.263Z,11.43
2023-03-19T05:09:18.170Z,10.33
2023-03-19T05:11:46.299Z,11.50
2023-03-19T05:14:19.284Z,8.87
2023-03-19T05:17:15.588Z,8.57
2023-03-19T05:19:57.127Z,6.33
2023-03-19T05:22:26.242Z,11.20
2023-03-19T05:24:55.217Z,6.03
2023-03-19T05:27:23.400Z,12.13
2023-03-19T05:30:00.239Z,7.93
2023-03-19T05:32:49.146Z,9.27
2023-03-19T05:35:29.334Z,9.53
2023-03-19T05:37:57.669Z,8.30
2023-03-19T05:40:26.431Z,6.27
2023-03-19T05:42:56.076Z,6.50
2023-03-19T05:45:27.406Z,11.20
2023-03-19T05:47:59.567Z,7.53
2023-03-19T05:50:28.069Z,7.77
2023-03-19T05:53:16.700Z,8.40
2023-03-19T05:55:53.530Z,8.00
2023-03-19T05:58:24.708Z,7.13
2023-03-19T06:00:56.202Z,7.60
2023-03-19T06:03:28.779Z,7.57
2023-03-19T06:06:01.212Z,8.13
2023-03-19T06:08:37.032Z,10.30
2023-03-19T06:11:21.341Z,10.43
2023-03-19T06:13:57.644Z,6.50
2023-03-19T06:16:25.743Z,7.23
2023-03-19T06:18:56.858Z,7.60
2023-03-19T06:21:29.530Z,9.20
2023-03-19T06:23:59.812Z,10.63
2023-03-19T06:26:34.875Z,9.60
2023-03-19T06:29:07.635Z,7.57
2023-03-19T06:31:41.832Z,7.93
2023-03-19T06:34:22.670Z,10.17
2023-03-19T06:36:50.681Z,10.17
2023-03-19T06:39:19.622Z,7.53
2023-03-19T06:41:47.564Z,7.33
2023-03-19T06:44:20.089Z,8.30
2023-03-19T06:46:54.386Z,7.40
2023-03-19T06:49:24.222Z,9.90
2023-03-19T06:51:52.134Z,8.87
2023-03-19T06:54:20.433Z,10.63
2023-03-19T06:56:49.052Z,7.47
2023-03-19T06:59:22.926Z,8.20
2023-03-19T07:01:50.964Z,11.50
2023-03-19T07:04:19.071Z,6.70
2023-03-19T07:06:48.405Z,8.00
2023-03-19T07:09:16.385Z,6.90
2023-03-19T07:11:44.310Z,7.90
2023-03-19T07:14:12.241Z,11.63
2023-03-19T07:16:40.170Z,10.43
2023-03-19T07:19:08.190Z,10.37
2023-03-19T07:21:36.449Z,8.47
2023-03-19T07:24:06.362Z,8.87
2023-03-19T07:26:35.582Z,8.47
2023-03-19T07:29:03.530Z,7.43
2023-03-19T07:31:31.515Z,7.53
2023-03-19T07:33:59.435Z,7.90
2023-03-19T07:36:27.416Z,7.47
2023-03-19T07:38:55.470Z,7.97
2023-03-19T07:41:24.731Z,8.43
2023-03-19T07:43:52.659Z,10.53
2023-03-19T07:46:21.429Z,10.00
2023-03-19T07:48:49.432Z,6.50
2023-03-19T07:51:17.349Z,6.50
2023-03-19T07:53:45.484Z,8.23
2023-03-19T07:56:14.057Z,7.67
2023-03-19T07:58:43.331Z,6.90
2023-03-19T08:01:11.250Z,8.63
2023-03-19T08:03:39.665Z,8.77
2023-03-19T08:06:07.751Z,8.03
2023-03-19T08:08:35.854Z,8.30
2023-03-19T08:11:05.409Z,8.60
2023-03-19T08:13:33.354Z,8.27
2023-03-19T08:16:02.724Z,7.30
2023-03-19T08:18:30.664Z,12.50
2023-03-19T08:20:58.554Z,7.70
2023-03-19T08:23:26.992Z,8.77
2023-03-19T08:25:56.950Z,10.63
2023-03-19T08:28:25.046Z,9.70
2023-03-19T08:30:52.959Z,11.43
2023-03-19T08:33:22.601Z,9.90
2023-03-19T08:35:50.619Z,12.20
2023-03-19T08:38:19.303Z,10.43
2023-03-19T08:40:47.767Z,16.70
2023-03-19T08:43:15.645Z,13.50
2023-03-19T08:45:43.707Z,9.97
2023-03-19T08:48:11.610Z,9.10
2023-03-19T08:50:40.991Z,8.40
2023-03-19T08:53:08.907Z,7.17
2023-03-19T08:55:36.920Z,10.03
2023-03-19T08:58:04.842Z,10.63
2023-03-19T09:00:33.041Z,8.70
2023-03-19T09:03:01.146Z,7.30
2023-03-19T09:05:29.854Z,14.23
2023-03-19T09:07:59.134Z,28.83
2023-03-19T09:10:27.146Z,15.77
2023-03-19T09:12:55.049Z,11.43
2023-03-19T09:15:22.985Z,11.40
2023-03-19T09:17:51.305Z,12.63
2023-03-19T09:20:19.492Z,11.40
2023-03-19T09:22:47.485Z,11.60
2023-03-19T09:25:16.770Z,8.23
2023-03-19T09:27:44.678Z,6.60
2023-03-19T09:30:13.610Z,7.27
2023-03-19T09:32:41.583Z,9.67
2023-03-19T09:35:10.430Z,6.83
2023-03-19T09:37:38.408Z,7.30
2023-03-19T09:40:08.268Z,9.20
2023-03-19T09:42:56.966Z,6.33
2023-03-19T09:45:26.000Z,6.77
2023-03-19T09:47:57.880Z,8.10
2023-03-19T09:50:28.818Z,6.03
2023-03-19T09:53:02.865Z,8.63
2023-03-19T09:55:42.498Z,6.90
2023-03-19T09:58:16.607Z,9.20
2023-03-19T10:00:48.545Z,10.10
2023-03-19T10:03:43.077Z,13.73
2023-03-19T10:06:30.075Z,7.07
2023-03-19T10:09:12.000Z,5.77
2023-03-19T10:11:52.997Z,6.27
2023-03-19T10:14:45.878Z,7.10
2023-03-19T10:17:19.157Z,7.03
2023-03-19T10:19:51.504Z,8.27
2023-03-19T10:22:23.131Z,6.93
2023-03-19T10:24:53.523Z,8.20
2023-03-19T10:27:28.482Z,15.60
2023-03-19T10:29:58.154Z,16.47
2023-03-19T10:32:38.536Z,10.90
2023-03-19T10:35:11.200Z,9.10
2023-03-19T10:37:39.747Z,10.10
2023-03-19T10:40:20.896Z,9.23
2023-03-19T10:43:02.775Z,12.00
2023-03-19T10:45:34.973Z,14.73
2023-03-19T10:48:06.283Z,10.03
2023-03-19T10:50:38.129Z,7.37
2023-03-19T10:53:08.839Z,44.40
2023-03-19T10:55:37.167Z,22.03
2023-03-19T10:58:07.500Z,18.33
2023-03-19T11:00:36.838Z,10.13
2023-03-19T11:03:05.906Z,6.13
2023-03-19T11:05:35.326Z,5.83
2023-03-19T11:08:05.658Z,9.90
2023-03-19T11:10:36.637Z,10.27
2023-03-19T11:13:07.260Z,7.30
2023-03-19T11:15:39.047Z,9.03
2023-03-19T11:18:10.042Z,7.53
2023-03-19T11:20:39.641Z,8.97
2023-03-19T11:23:12.804Z,8.03
2023-03-19T11:25:42.335Z,8.00
2023-03-19T11:28:14.231Z,6.90
2023-03-19T11:30:52.100Z,6.17
2023-03-19T11:33:52.064Z,10.27
2023-03-19T11:36:25.835Z,7.50
2023-03-19T11:39:13.030Z,6.70
2023-03-19T11:41:54.931Z,6.10
2023-03-19T11:44:30.033Z,6.30
2023-03-19T11:47:14.978Z,7.60
2023-03-19T11:50:01.827Z,6.80
2023-03-19T11:52:36.939Z,6.10
2023-03-19T11:55:21.272Z,7.07
2023-03-19T11:58:04.489Z,5.13
2023-03-19T12:00:37.595Z,6.50
2023-03-19T12:03:33.769Z,6.67
2023-03-19T12:06:08.308Z,4.37
2023-03-19T12:08:44.120Z,7.20
2023-03-19T12:11:22.024Z,6.40
2023-03-19T12:14:00.830Z,5.40
2023-03-19T12:16:45.914Z,6.67
2023-03-19T12:19:30.419Z,5.30
2023-03-19T12:22:10.227Z,4.70
2023-03-19T12:24:57.626Z,4.27
2023-03-19T12:27:35.407Z,4.80
2023-03-19T12:30:10.393Z,4.93
2023-03-19T12:32:55.604Z,6.37
2023-03-19T12:35:32.814Z,6.90
2023-03-19T12:38:06.759Z,5.47
2023-03-19T12:40:39.566Z,6.20
2023-03-19T12:43:15.402Z,6.63
2023-03-19T12:45:46.321Z,6.90
2023-03-19T12:48:18.309Z,6.37
2023-03-19T12:50:54.211Z,5.60
2023-03-19T12:53:31.871Z,4.70
2023-03-19T12:56:06.092Z,5.20
2023-03-19T12:58:43.688Z,5.93
2023-03-19T13:01:17.572Z,6.53
2023-03-19T13:03:55.594Z,4.70
2023-03-19T13:06:29.596Z,4.93
2023-03-19T13:09:04.963Z,5.30
2023-03-19T13:11:40.769Z,5.13
2023-03-19T13:14:18.117Z,5.53
2023-03-19T13:16:51.965Z,5.27
2023-03-19T13:19:25.545Z,4.90
2023-03-19T13:21:59.111Z,4.50
2023-03-19T13:24:29.919Z,5.87
2023-03-19T13:27:01.077Z,5.73
2023-03-19T13:29:31.284Z,5.40
2023-03-19T13:32:10.190Z,7.53
2023-03-19T13:34:39.722Z,5.23
2023-03-19T13:37:16.070Z,7.17
2023-03-19T13:39:46.034Z,6.57
2023-03-19T13:42:38.170Z,6.20
2023-03-19T13:45:32.269Z,5.80
2023-03-19T13:48:35.796Z,8.03
2023-03-19T13:51:06.331Z,5.23
2023-03-19T13:53:40.638Z,7.17
2023-03-19T13:56:28.294Z,5.93
2023-03-19T13:59:26.821Z,5.40
2023-03-19T14:01:55.315Z,4.87
2023-03-19T14:04:29.400Z,6.83
2023-03-19T14:07:05.045Z,7.23
2023-03-19T14:09:37.509Z,6.37
2023-03-19T14:12:21.783Z,5.33
2023-03-19T14:14:53.007Z,5.00
2023-03-19T14:17:23.407Z,6.00
2023-03-19T14:19:54.278Z,5.10
2023-03-19T14:22:33.634Z,7.20
2023-03-19T14:25:17.634Z,4.50
2023-03-19T14:27:48.507Z,5.97
2023-03-19T14:30:28.414Z,6.23
2023-03-19T14:32:58.703Z,7.50
2023-03-19T14:35:28.582Z,6.30
2023-03-19T14:37:57.931Z,6.50
2023-03-19T14:40:28.192Z,6.53
2023-03-19T14:43:04.362Z,8.40
2023-03-19T14:45:49.572Z,13.27
2023-03-19T14:49:08.430Z,6.87
2023-03-19T14:51:58.287Z,6.70
2023-03-19T14:54:35.228Z,7.03
2023-03-19T14:57:08.527Z,9.47
2023-03-19T14:59:40.229Z,8.43
2023-03-19T15:02:22.502Z,10.40
2023-03-19T15:04:51.007Z,5.27
2023-03-19T15:07:23.820Z,7.43
2023-03-19T15:09:55.391Z,12.33
2023-03-19T15:12:55.218Z,10.87
2023-03-19T15:15:37.718Z,8.20
2023-03-19T15:18:10.607Z,7.70
2023-03-19T15:20:42.978Z,7.33
2023-03-19T15:23:26.312Z,7.10
2023-03-19T15:25:57.885Z,5.93
2023-03-19T15:28:28.049Z,9.20
2023-03-19T15:31:06.366Z,8.50
2023-03-19T15:33:44.858Z,10.70
2023-03-19T15:36:18.075Z,9.47
2023-03-19T15:38:52.671Z,12.57
2023-03-19T15:41:21.409Z,13.30
2023-03-19T15:43:49.617Z,7.97
2023-03-19T15:46:22.349Z,8.07
2023-03-19T15:48:54.362Z,7.90
2023-03-19T15:51:26.387Z,6.17
2023-03-19T15:53:56.252Z,7.13
2023-03-19T15:56:25.809Z,6.30
2023-03-19T15:58:57.767Z,9.00
2023-03-19T16:01:27.259Z,7.53
2023-03-19T16:03:59.734Z,7.03
2023-03-19T16:06:30.768Z,6.67
2023-03-19T16:09:18.261Z,6.93
2023-03-19T16:11:47.538Z,6.33
2023-03-19T16:14:24.963Z,8.77
2023-03-19T16:17:00.148Z,8.10
2023-03-19T16:19:34.248Z,7.73
2023-03-19T16:22:03.555Z,12.57
2023-03-19T16:24:38.886Z,7.27
2023-03-19T16:27:11.050Z,10.77
2023-03-19T16:29:41.823Z,6.37
2023-03-19T16:32:23.417Z,6.10
2023-03-19T16:34:53.564Z,8.10
2023-03-19T16:37:41.361Z,9.03
2023-03-19T16:40:55.971Z,8.53
2023-03-19T16:43:36.674Z,6.67
2023-03-19T16:46:08.942Z,6.90
2023-03-19T16:48:36.895Z,6.77
2023-03-19T16:51:05.694Z,7.87
2023-03-19T16:53:33.695Z,9.47
2023-03-19T16:56:03.454Z,6.33
2023-03-19T16:58:34.919Z,6.40
2023-03-19T17:01:05.651Z,6.37
2023-03-19T17:03:33.663Z,8.50
2023-03-19T17:06:03.872Z,7.63
2023-03-19T17:08:32.940Z,10.13
2023-03-19T17:11:02.595Z,8.37
2023-03-19T17:13:35.330Z,9.17
2023-03-19T17:16:07.720Z,7.93
2023-03-19T17:18:36.960Z,12.10
2023-03-19T17:21:08.894Z,7.37
2023-03-19T17:23:38.017Z,7.73
2023-03-19T17:26:15.343Z,7.37
2023-03-19T17:28:44.972Z,6.10
2023-03-19T17:31:26.314Z,6.93
2023-03-19T17:33:57.964Z,7.10
2023-03-19T17:36:26.653Z,6.73
2023-03-19T17:38:55.431Z,7.20
2023-03-19T17:41:23.464Z,8.53
2023-03-19T17:43:52.760Z,6.47
2023-03-19T17:46:23.249Z,9.20
2023-03-19T17:48:51.920Z,7.57
2023-03-19T17:51:20.589Z,8.27
2023-03-19T17:53:50.984Z,9.93
2023-03-19T17:56:20.644Z,10.17
2023-03-19T17:58:50.468Z,7.80
2023-03-19T18:01:26.414Z,10.30
2023-03-19T18:03:56.295Z,6.67
2023-03-19T18:06:26.035Z,10.47
2023-03-19T18:08:53.945Z,7.10
2023-03-19T18:11:21.893Z,6.87
2023-03-19T18:13:49.828Z,8.77
2023-03-19T18:16:24.277Z,9.43
2023-03-19T18:18:53.398Z,10.10
2023-03-19T18:21:21.418Z,10.90
2023-03-19T18:23:51.518Z,21.83
2023-03-19T18:26:19.472Z,42.67
2023-03-19T18:28:47.476Z,16.93
2023-03-19T18:31:18.979Z,19.27
2023-03-19T18:33:51.052Z,15.37
2023-03-19T18:36:24.421Z,18.23
2023-03-19T18:38:52.766Z,19.83
2023-03-19T18:41:23.055Z,23.83
2023-03-19T18:44:04.700Z,19.33
2023-03-19T18:46:34.179Z,19.33
2023-03-19T18:49:06.528Z,20.37
2023-03-19T18:51:35.473Z,21.60
2023-03-19T18:54:03.798Z,20.10
2023-03-19T18:56:34.602Z,26.77
2023-03-19T18:59:07.321Z,28.90
2023-03-19T19:01:36.413Z,42.17
2023-03-19T19:04:06.050Z,24.57
2023-03-19T19:06:46.980Z,25.47
2023-03-19T19:09:15.988Z,18.90
2023-03-19T19:11:47.556Z,18.73
2023-03-19T19:14:21.805Z,15.93
2023-03-19T19:16:56.984Z,17.50
2023-03-19T19:19:28.629Z,15.50
2023-03-19T19:21:56.597Z,14.57
2023-03-19T19:24:24.800Z,17.37
2023-03-19T19:26:54.123Z,14.83
2023-03-19T19:29:25.863Z,16.80
2023-03-19T19:31:54.766Z,12.10
2023-03-19T19:34:23.551Z,20.47
2023-03-19T19:36:55.461Z,22.13
2023-03-19T19:39:23.428Z,21.10
2023-03-19T19:41:52.902Z,42.70
2023-03-19T19:44:22.983Z,24.10
2023-03-19T19:46:53.309Z,32.03
2023-03-19T19:49:23.172Z,18.57
2023-03-19T19:51:52.814Z,18.73
2023-03-19T19:54:21.701Z,21.33
2023-03-19T19:56:49.852Z,14.13
2023-03-19T19:59:18.063Z,18.13
2023-03-19T20:01:46.144Z,27.67
2023-03-19T20:04:15.700Z,26.27
2023-03-19T20:06:43.665Z,21.10
2023-03-19T20:09:12.988Z,26.43
2023-03-19T20:11:40.927Z,53.10
2023-03-19T20:14:14.404Z,28.87
2023-03-19T20:16:43.120Z,25.20
2023-03-19T20:19:19.159Z,22.03
2023-03-19T20:21:47.189Z,18.63
2023-03-19T20:24:16.776Z,19.30
2023-03-19T20:26:44.926Z,18.10
2023-03-19T20:29:15.969Z,19.00
2023-03-19T20:31:46.635Z,17.03
2023-03-19T20:34:28.672Z,22.07
2023-03-19T20:37:03.953Z,20.30
2023-03-19T20:39:33.334Z,21.63
2023-03-19T20:42:01.277Z,27.10
2023-03-19T20:44:29.281Z,20.60
2023-03-19T20:46:58.963Z,19.97
2023-03-19T20:49:26.940Z,17.37
2023-03-19T20:51:54.890Z,21.37
2023-03-19T20:54:23.702Z,22.50
2023-03-19T20:56:52.977Z,25.60
2023-03-19T20:59:21.133Z,27.00
2023-03-19T21:01:49.140Z,48.97
2023-03-19T21:04:20.369Z,61.77
2023-03-19T21:06:53.342Z,91.10
2023-03-19T21:09:22.462Z,52.60
2023-03-19T21:11:52.187Z,38.90
2023-03-19T21:14:23.182Z,29.20
2023-03-19T21:16:51.388Z,26.13
2023-03-19T21:19:20.002Z,41.70
2023-03-19T21:21:48.215Z,24.80
2023-03-19T21:24:23.030Z,19.03
2023-03-19T21:26:54.786Z,24.30
2023-03-19T21:29:29.576Z,19.67
2023-03-19T21:31:57.878Z,26.07
2023-03-19T21:34:26.258Z,22.17
2023-03-19T21:36:54.228Z,23.43
2023-03-19T21:39:22.316Z,28.13
2023-03-19T21:41:50.263Z,29.00
2023-03-19T21:44:24.418Z,20.30
2023-03-19T21:46:54.402Z,20.70
2023-03-19T21:49:22.309Z,18.80
2023-03-19T21:51:50.723Z,16.03
2023-03-19T21:54:18.661Z,17.67
2023-03-19T21:56:47.175Z,14.07
2023-03-19T21:59:17.297Z,15.83
2023-03-19T22:01:46.692Z,17.10
2023-03-19T22:04:15.895Z,19.70
2023-03-19T22:06:43.953Z,21.83
2023-03-19T22:09:13.007Z,17.47
2023-03-19T22:11:41.895Z,15.80
2023-03-19T22:14:17.696Z,18.03
2023-03-19T22:16:47.739Z,16.50
2023-03-19T22:19:17.718Z,16.40
2023-03-19T22:21:45.930Z,16.20
2023-03-19T22:24:14.300Z,14.37
2023-03-19T22:26:46.389Z,17.30
2023-03-19T22:29:16.961Z,16.67
2023-03-19T22:31:48.727Z,18.43
2023-03-19T22:34:18.507Z,16.30
2023-03-19T22:36:46.602Z,20.53
2023-03-19T22:39:14.896Z,20.90
2023-03-19T22:41:45.726Z,17.40
2023-03-19T22:44:20.333Z,18.33
2023-03-19T22:46:49.698Z,16.90
2023-03-19T22:49:18.831Z,17.73
2023-03-19T22:51:47.342Z,17.50
2023-03-19T22:54:15.629Z,21.30
2023-03-19T22:56:43.970Z,17.70
2023-03-19T22:59:11.929Z,13.67
2023-03-19T23:01:43.216Z,16.97
2023-03-19T23:04:22.031Z,15.47
2023-03-19T23:06:50.441Z,17.90
2023-03-19T23:09:20.990Z,18.30
2023-03-19T23:11:49.381Z,14.57
2023-03-19T23:14:28.983Z,18.70
2023-03-19T23:19:29.800Z,19.87
2023-03-19T23:21:58.823Z,21.83
2023-03-19T23:24:27.899Z,20.10
2023-03-19T23:26:58.120Z,18.93
2023-03-19T23:29:30.418Z,23.37
2023-03-19T23:31:58.840Z,26.50
2023-03-19T23:34:29.412Z,21.17
2023-03-19T23:36:58.124Z,19.73
2023-03-19T23:39:26.634Z,29.90
2023-03-19T23:41:58.769Z,21.37
2023-03-19T23:44:28.956Z,34.30
2023-03-19T23:47:00.365Z,49.53
2023-03-19T23:49:32.170Z,56.50
2023-03-19T23:52:01.868Z,48.87
2023-03-19T23:54:31.930Z,19.00
2023-03-19T23:57:02.137Z,22.77
2023-03-19T23:59:34.013Z,23.57
